Eendracht — PDVN — position and weather

sailwx.info

Track history (hours):
 
Tides and Currents Weather Stations Pressure Air Temp Water Temp Dewpoint Dewpoint Depression Visibility Wind Speed Wind Dir Waves Ship Positions

Eendracht (Netherlands)

Last reported at 2016-Sep-27 14:33 UTC. Time now 2016-Sep-27 19:02 UTC.
Position N 52°58' E 004°44'.

Length 59 m; beam 12 m; draft 5 m.

MMSI: 244543000.

Date/timePositionNaut miles runAvg speedWind from/ knotsBaromVisibWave heightAir tempDewpointWater temp
2016-Sep-27 14:33N 52°58' E 004°44'6 6.4
2016-Sep-27 13:34N 52°53' E 004°37'13 4.2
2016-Sep-27 10:33N 52°48' E 004°18'29 2.1
2016-Sep-26 20:34N 52°24' E 003°50'2 2.4
2016-Sep-26 19:34N 52°23' E 003°53'8 2.1
2016-Sep-26 15:33N 52°19' E 004°06'7 3.6
2016-Sep-26 13:34N 52°15' E 004°15'5 2.7
2016-Sep-26 11:33N 52°09' E 004°14'3 1.2
2016-Sep-26 08:33N 52°06' E 004°16'0 0.0
2016-Sep-26 02:31N 52°06' E 004°16'0 0.0
2016-Sep-26 01:29N 52°06' E 004°16'0 0.0
2016-Sep-26 00:31N 52°06' E 004°16'0 0.0
2016-Sep-25 21:31N 52°06' E 004°16'0 0.0
2016-Sep-25 17:28N 52°06' E 004°16'0 0.0
2016-Sep-25 16:31N 52°06' E 004°16'1 1.1
2016-Sep-25 15:33N 52°07' E 004°15'5 5.5
2016-Sep-25 14:34N 52°11' E 004°09'2 1.2
2016-Sep-25 12:33N 52°10' E 004°12'8 7.7
2016-Sep-25 11:33N 52°15' E 004°03'3 3.5
2016-Sep-25 10:33N 52°13' E 004°07'4 4.5
2016-Sep-25 09:33N 52°09' E 004°12'4 2.1
2016-Sep-25 07:32N 52°06' E 004°16'0 0.0
2016-Sep-25 04:31N 52°06' E 004°16'0 0.0
2016-Sep-25 00:28N 52°06' E 004°16'0 0.0
2016-Sep-24 22:32N 52°06' E 004°16'0 0.0
2016-Sep-24 21:29N 52°06' E 004°16'0 0.0
2016-Sep-24 19:32N 52°06' E 004°16'0 0.0
2016-Sep-24 18:32N 52°06' E 004°16'0 0.0
2016-Sep-24 17:32N 52°06' E 004°16'0 0.0
2016-Sep-24 16:31N 52°06' E 004°16'5 2.5
2016-Sep-24 14:33N 52°08' E 004°09'5 2.4
2016-Sep-24 12:33N 52°06' E 004°16'0 0.0
2016-Sep-24 10:33N 52°06' E 004°16'0 0.0
2016-Sep-24 09:33N 52°06' E 004°16'0 0.0
2016-Sep-24 03:32N 52°06' E 004°16'0 0.0
2016-Sep-24 02:32N 52°06' E 004°16'0 0.0
2016-Sep-24 01:32N 52°06' E 004°16'0 0.0
2016-Sep-24 00:32N 52°06' E 004°16'0 0.0
2016-Sep-23 19:32N 52°06' E 004°16'0 0.0
2016-Sep-23 17:32N 52°06' E 004°16'0 0.0
2016-Sep-23 16:32N 52°06' E 004°16'0 0.0
2016-Sep-23 15:32N 52°06' E 004°16'7 3.5
2016-Sep-23 13:34N 52°08' E 004°05'15 3.9
2016-Sep-23 09:34N 51°54' E 004°17'6 2.1
2016-Sep-23 06:32N 51°54' E 004°28'0 0.0
2016-Sep-23 04:32N 51°54' E 004°28'0 0.0
2016-Sep-23 03:32N 51°54' E 004°28'0 0.0
2016-Sep-23 02:32N 51°54' E 004°28'0 0.0
2016-Sep-23 01:33N 51°54' E 004°28'0 0.0
2016-Sep-23 00:32N 51°54' E 004°28'0 0.0
2016-Sep-22 23:32N 51°54' E 004°28'0 0.0
2016-Sep-22 20:32N 51°54' E 004°28'0 0.0
2016-Sep-22 12:32N 51°54' E 004°28'0 0.0
2016-Sep-22 04:32N 51°54' E 004°28'0 0.0
2016-Sep-22 03:32N 51°54' E 004°28'0 0.0
2016-Sep-22 00:31N 51°54' E 004°28'0 0.0
2016-Sep-21 23:31N 51°54' E 004°28'0 0.0
2016-Sep-21 22:31N 51°54' E 004°28'0 0.0
2016-Sep-21 19:31N 51°54' E 004°28'1 0.3
2016-Sep-21 16:32N 51°54' E 004°29'16 2.3
2016-Sep-21 09:33N 52°03' E 004°07'6 5.6
2016-Sep-21 08:33N 52°06' E 004°15'0 0.1
2016-Sep-21 05:31N 52°06' E 004°16'0 0.0
2016-Sep-21 03:31N 52°06' E 004°16'0 0.0
2016-Sep-21 02:31N 52°06' E 004°16'0 0.0
2016-Sep-20 17:33N 52°06' E 004°16'0 0.0
2016-Sep-20 14:33N 52°06' E 004°16'0 0.0
2016-Sep-20 13:33N 52°06' E 004°16'10 3.3
2016-Sep-20 10:34N 51°59' E 004°03'15 7.7
2016-Sep-20 08:33N 51°54' E 004°27'1 1.2
2016-Sep-20 07:32N 51°54' E 004°29'0 0.0
2016-Sep-20 06:32N 51°54' E 004°29'0 0.0
2016-Sep-20 02:32N 51°54' E 004°29'0 0.0
2016-Sep-19 23:32N 51°54' E 004°29'0 0.0
2016-Sep-19 19:32N 51°54' E 004°29'0 0.0
2016-Sep-19 18:32N 51°54' E 004°29'2 1.2
2016-Sep-19 16:33N 51°54' E 004°25'12 6.1
2016-Sep-19 14:33N 51°59' E 004°07'3 3.3
2016-Sep-19 13:33N 51°59' E 004°02'2 1.7
2016-Sep-19 12:33N 52°00' E 004°01'2 2.4
2016-Sep-19 11:33N 52°02' E 004°02'11 5.4
2016-Sep-19 09:33N 51°55' E 004°14'9 4.5
2016-Sep-19 07:33N 51°54' E 004°29'0 0.0
2016-Sep-19 06:33N 51°54' E 004°29'0 0.0
2016-Sep-19 03:33N 51°54' E 004°29'0 0.0
2016-Sep-19 02:33N 51°54' E 004°29'0 0.0
2016-Sep-19 00:33N 51°54' E 004°29'0 0.0
2016-Sep-18 19:33N 51°54' E 004°29'10 2.4
2016-Sep-18 15:33N 51°56' E 004°13'8 7.9
2016-Sep-18 14:33N 52°01' E 004°03'3 0.7
2016-Sep-18 10:33N 51°59' E 004°07'8 7.9
2016-Sep-18 09:33N 51°54' E 004°17'7 1.0
2016-Sep-18 02:33N 51°54' E 004°29'0 0.0
2016-Sep-18 01:33N 51°54' E 004°29'0 0.0
2016-Sep-18 00:33N 51°54' E 004°29'3 1.7
2016-Sep-17 22:33N 51°54' E 004°24'6 6.2
2016-Sep-17 21:33N 51°55' E 004°14'6 6.1
2016-Sep-17 20:34N 51°59' E 004°06'3 2.7
2016-Sep-17 19:16N 51°58' E 004°01'  
Track history (hours):
 
Tides and Currents Weather Stations Pressure Air Temp Water Temp Dewpoint Dewpoint Depression Visibility Wind Speed Wind Dir Waves Ship Positions

Eendracht (Netherlands)

Last reported at 2016-Sep-27 14:33 UTC. Time now 2016-Sep-27 19:02 UTC.
Position N 52°58' E 004°44'.

Length 59 m; beam 12 m; draft 5 m.

MMSI: 244543000.

Date/timePositionNaut miles runAvg speedWind from/ knotsBaromVisibWave heightAir tempDewpointWater temp
2016-Sep-27 14:33N 52°58' E 004°44'6 6.4
2016-Sep-27 13:34N 52°53' E 004°37'13 4.2
2016-Sep-27 10:33N 52°48' E 004°18'29 2.1
2016-Sep-26 20:34N 52°24' E 003°50'2 2.4
2016-Sep-26 19:34N 52°23' E 003°53'8 2.1
2016-Sep-26 15:33N 52°19' E 004°06'7 3.6
2016-Sep-26 13:34N 52°15' E 004°15'5 2.7
2016-Sep-26 11:33N 52°09' E 004°14'3 1.2
2016-Sep-26 08:33N 52°06' E 004°16'0 0.0
2016-Sep-26 02:31N 52°06' E 004°16'0 0.0
2016-Sep-26 01:29N 52°06' E 004°16'0 0.0
2016-Sep-26 00:31N 52°06' E 004°16'0 0.0
2016-Sep-25 21:31N 52°06' E 004°16'0 0.0
2016-Sep-25 17:28N 52°06' E 004°16'0 0.0
2016-Sep-25 16:31N 52°06' E 004°16'1 1.1
2016-Sep-25 15:33N 52°07' E 004°15'5 5.5
2016-Sep-25 14:34N 52°11' E 004°09'2 1.2
2016-Sep-25 12:33N 52°10' E 004°12'8 7.7
2016-Sep-25 11:33N 52°15' E 004°03'3 3.5
2016-Sep-25 10:33N 52°13' E 004°07'4 4.5
2016-Sep-25 09:33N 52°09' E 004°12'4 2.1
2016-Sep-25 07:32N 52°06' E 004°16'0 0.0
2016-Sep-25 04:31N 52°06' E 004°16'0 0.0
2016-Sep-25 00:28N 52°06' E 004°16'0 0.0
2016-Sep-24 22:32N 52°06' E 004°16'0 0.0
2016-Sep-24 21:29N 52°06' E 004°16'0 0.0
2016-Sep-24 19:32N 52°06' E 004°16'0 0.0
2016-Sep-24 18:32N 52°06' E 004°16'0 0.0
2016-Sep-24 17:32N 52°06' E 004°16'0 0.0
2016-Sep-24 16:31N 52°06' E 004°16'5 2.5
2016-Sep-24 14:33N 52°08' E 004°09'5 2.4
2016-Sep-24 12:33N 52°06' E 004°16'0 0.0
2016-Sep-24 10:33N 52°06' E 004°16'0 0.0
2016-Sep-24 09:33N 52°06' E 004°16'0 0.0
2016-Sep-24 03:32N 52°06' E 004°16'0 0.0
2016-Sep-24 02:32N 52°06' E 004°16'0 0.0
2016-Sep-24 01:32N 52°06' E 004°16'0 0.0
2016-Sep-24 00:32N 52°06' E 004°16'0 0.0
2016-Sep-23 19:32N 52°06' E 004°16'0 0.0
2016-Sep-23 17:32N 52°06' E 004°16'0 0.0
2016-Sep-23 16:32N 52°06' E 004°16'0 0.0
2016-Sep-23 15:32N 52°06' E 004°16'7 3.5
2016-Sep-23 13:34N 52°08' E 004°05'15 3.9
2016-Sep-23 09:34N 51°54' E 004°17'6 2.1
2016-Sep-23 06:32N 51°54' E 004°28'0 0.0
2016-Sep-23 04:32N 51°54' E 004°28'0 0.0
2016-Sep-23 03:32N 51°54' E 004°28'0 0.0
2016-Sep-23 02:32N 51°54' E 004°28'0 0.0
2016-Sep-23 01:33N 51°54' E 004°28'0 0.0
2016-Sep-23 00:32N 51°54' E 004°28'0 0.0
2016-Sep-22 23:32N 51°54' E 004°28'0 0.0
2016-Sep-22 20:32N 51°54' E 004°28'0 0.0
2016-Sep-22 12:32N 51°54' E 004°28'0 0.0
2016-Sep-22 04:32N 51°54' E 004°28'0 0.0
2016-Sep-22 03:32N 51°54' E 004°28'0 0.0
2016-Sep-22 00:31N 51°54' E 004°28'0 0.0
2016-Sep-21 23:31N 51°54' E 004°28'0 0.0
2016-Sep-21 22:31N 51°54' E 004°28'0 0.0
2016-Sep-21 19:31N 51°54' E 004°28'1 0.3
2016-Sep-21 16:32N 51°54' E 004°29'16 2.3
2016-Sep-21 09:33N 52°03' E 004°07'6 5.6
2016-Sep-21 08:33N 52°06' E 004°15'0 0.1
2016-Sep-21 05:31N 52°06' E 004°16'0 0.0
2016-Sep-21 03:31N 52°06' E 004°16'0 0.0
2016-Sep-21 02:31N 52°06' E 004°16'0 0.0
2016-Sep-20 17:33N 52°06' E 004°16'0 0.0
2016-Sep-20 14:33N 52°06' E 004°16'0 0.0
2016-Sep-20 13:33N 52°06' E 004°16'10 3.3
2016-Sep-20 10:34N 51°59' E 004°03'15 7.7
2016-Sep-20 08:33N 51°54' E 004°27'1 1.2
2016-Sep-20 07:32N 51°54' E 004°29'0 0.0
2016-Sep-20 06:32N 51°54' E 004°29'0 0.0
2016-Sep-20 02:32N 51°54' E 004°29'0 0.0
2016-Sep-19 23:32N 51°54' E 004°29'0 0.0
2016-Sep-19 19:32N 51°54' E 004°29'0 0.0
2016-Sep-19 18:32N 51°54' E 004°29'2 1.2
2016-Sep-19 16:33N 51°54' E 004°25'12 6.1
2016-Sep-19 14:33N 51°59' E 004°07'3 3.3
2016-Sep-19 13:33N 51°59' E 004°02'2 1.7
2016-Sep-19 12:33N 52°00' E 004°01'2 2.4
2016-Sep-19 11:33N 52°02' E 004°02'11 5.4
2016-Sep-19 09:33N 51°55' E 004°14'9 4.5
2016-Sep-19 07:33N 51°54' E 004°29'0 0.0
2016-Sep-19 06:33N 51°54' E 004°29'0 0.0
2016-Sep-19 03:33N 51°54' E 004°29'0 0.0
2016-Sep-19 02:33N 51°54' E 004°29'0 0.0
2016-Sep-19 00:33N 51°54' E 004°29'0 0.0
2016-Sep-18 19:33N 51°54' E 004°29'10 2.4
2016-Sep-18 15:33N 51°56' E 004°13'8 7.9
2016-Sep-18 14:33N 52°01' E 004°03'3 0.7
2016-Sep-18 10:33N 51°59' E 004°07'8 7.9
2016-Sep-18 09:33N 51°54' E 004°17'7 1.0
2016-Sep-18 02:33N 51°54' E 004°29'0 0.0
2016-Sep-18 01:33N 51°54' E 004°29'0 0.0
2016-Sep-18 00:33N 51°54' E 004°29'3 1.7
2016-Sep-17 22:33N 51°54' E 004°24'6 6.2
2016-Sep-17 21:33N 51°55' E 004°14'6 6.1
2016-Sep-17 20:34N 51°59' E 004°06'3 2.7
2016-Sep-17 19:16N 51°58' E 004°01'  

Dump ship's entire track history